ソチ の空港の天気 - METARとTAF

ソチ空港 ( URSS / AER ) - ロシア ソチ
飛行場実況気象(Metar)
観測時間01/16 21:30 MSK (01/16 18:30 UTC)
風向・風速東北東 3m/s
視程10km以上
天気現象
少しの雲 雲底高度 1220m
気温-1℃
湿度86%
気圧1020hPa
METARURSS 161830Z 06003MPS 9999 FEW040CB M01/M03 Q1020 R02/010070 R06/010070 NOSIG RMK R06/36002MPS MT OBSC QFE764
過去の天気等 Google飛行場航空写真 Wunderground天気予報

過去48時間のMETAR

飛行場予報(TAF)
発表時間: 1/16 19:59 MSK (1/16 16:59 UTC)
予報対象時間: 16日21時 MSK ~ 17日21時 MSK
風向・風速北東 4m/s 瞬間風速 9m/s
視程10km以上
全天の4割程度の積乱雲 雲底高度 910m
全天の4割程度の雲 雲底高度 3050m
16日22時 MSK ~ 16日23時 MSK に徐々に
風向・風速北東 7m/s
17日12時 MSK ~ 17日13時 MSK に徐々に
風向・風速南南東 8m/s 瞬間風速 14m/s
17日18時 MSK ~ 17日19時 MSK に徐々に
風向・風速北東 4m/s 瞬間風速 9m/s
全天の4割程度の積乱雲 雲底高度 910m
全天の8割程度の雲 雲底高度 3050m
17日19時 MSK ~ 17日21時 MSK に一時的に
風向・風速東南東 8m/s 瞬間風速 14m/s
TAF URSS 161659Z 1618/1718 05004G09MPS 9999 SCT030CB SCT100
BECMG 1619/1620 04007MPS
BECMG 1709/1710 15008G14MPS
BECMG 1715/1716 05004G09MPS SCT030CB BKN100
TEMPO 1716/1718 12008G14MPS